Time;durP1;ratioP1;P1;durP2;ratioP2;P2;SDS_P1;SDS_P2;PMS_P1;PMS_P2;Temp;Humidity;BMP_temperature;BMP_pressure;BME280_temperature;BME280_humidity;BME280_pressure;Samples;Min_cycle;Max_cycle;Signal;HPM_P1;HPM_P2
2021/05/13 00:00:19;;;;;;;10.27;7.17;;;;;;;8.12;99.78;99721.91;2039598;29;20373;-68
2021/05/13 00:01:22;;;;;;;12.70;7.72;;;;;;;8.05;99.80;99721.22;2039709;29;20028;-68
2021/05/13 00:02:22;;;;;;;13.32;7.90;;;;;;;8.07;99.93;99719.44;2040846;29;20034;-68
2021/05/13 00:03:22;;;;;;;11.23;7.37;;;;;;;8.06;99.99;99722.06;2042430;29;20051;-68
2021/05/13 00:04:23;;;;;;;12.20;8.57;;;;;;;8.04;100.00;99723.84;2041839;28;20031;-68
2021/05/13 00:05:23;;;;;;;9.70;7.77;;;;;;;8.01;100.00;99719.59;2039971;29;20079;-66
2021/05/13 00:06:24;;;;;;;14.60;8.60;;;;;;;8.01;100.00;99724.78;2040832;29;20121;-68
2021/05/13 00:07:24;;;;;;;16.33;9.03;;;;;;;8.01;100.00;99722.19;2040643;29;20102;-65
2021/05/13 00:08:24;;;;;;;11.67;8.47;;;;;;;7.95;100.00;99714.56;2041098;29;20275;-68
2021/05/13 00:09:24;;;;;;;11.20;8.17;;;;;;;7.95;100.00;99715.41;2040546;29;20036;-69
2021/05/13 00:10:26;;;;;;;15.73;10.57;;;;;;;7.95;100.00;99722.38;2040426;29;20397;-69
2021/05/13 00:11:31;;;;;;;15.82;10.18;;;;;;;7.89;100.00;99717.31;2040324;29;20038;-68
2021/05/13 00:12:40;;;;;;;14.93;9.27;;;;;;;7.83;100.00;99718.38;2041313;29;20031;-68
2021/05/13 00:13:40;;;;;;;16.20;9.07;;;;;;;7.82;100.00;99715.78;2040789;29;20046;-68
2021/05/13 00:14:41;;;;;;;14.90;9.20;;;;;;;7.84;100.00;99719.19;2041107;29;20024;-69
2021/05/13 00:15:42;;;;;;;13.70;9.47;;;;;;;7.82;100.00;99718.38;2039708;29;20051;-69
2021/05/13 00:16:44;;;;;;;17.77;8.88;;;;;;;7.85;100.00;99716.56;2032037;29;20028;-68
2021/05/13 00:17:44;;;;;;;16.92;9.20;;;;;;;7.78;100.00;99721.09;2032453;29;20039;-68
2021/05/13 00:18:44;;;;;;;12.47;8.10;;;;;;;7.73;100.00;99717.75;2033207;29;20409;-68
2021/05/13 00:19:45;;;;;;;13.73;8.57;;;;;;;7.74;100.00;99716.00;2047507;29;20456;-68
2021/05/13 00:20:45;;;;;;;15.70;9.27;;;;;;;7.70;100.00;99715.22;2048436;29;20035;-69
2021/05/13 00:21:45;;;;;;;17.07;10.30;;;;;;;7.67;100.00;99711.84;2040598;29;20066;-69
2021/05/13 00:22:46;;;;;;;15.20;8.93;;;;;;;7.62;100.00;99705.06;2040912;29;20440;-69
2021/05/13 00:23:46;;;;;;;12.37;8.53;;;;;;;7.62;100.00;99704.19;2040484;29;20366;-69
2021/05/13 00:24:46;;;;;;;13.53;8.73;;;;;;;7.58;100.00;99707.78;2040909;29;20035;-69
2021/05/13 00:25:49;;;;;;;13.73;8.60;;;;;;;7.57;100.00;99709.50;2040519;29;20051;-69
2021/05/13 00:26:50;;;;;;;14.05;8.20;;;;;;;7.50;100.00;99710.56;2040980;29;20477;-69
2021/05/13 00:27:51;;;;;;;17.90;8.60;;;;;;;7.41;100.00;99708.19;2040395;29;20059;-69
2021/05/13 00:28:51;;;;;;;14.15;8.00;;;;;;;7.36;100.00;99708.31;2040506;29;20032;-69
2021/05/13 00:29:51;;;;;;;14.83;8.77;;;;;;;7.31;100.00;99711.03;2040816;29;20035;-69
2021/05/13 00:30:52;;;;;;;13.00;8.37;;;;;;;7.28;100.00;99707.66;2040409;29;20027;-69
2021/05/13 00:31:52;;;;;;;14.27;8.30;;;;;;;7.29;100.00;99709.38;2039848;29;20028;-70
2021/05/13 00:32:53;;;;;;;12.73;9.00;;;;;;;7.27;100.00;99709.38;2039900;29;20050;-69
2021/05/13 00:33:53;;;;;;;30.98;20.17;;;;;;;7.25;100.00;99702.53;2039625;29;20027;-69
2021/05/13 00:34:54;;;;;;;78.20;49.10;;;;;;;7.36;100.00;99705.72;2040504;29;20028;-66
2021/05/13 00:35:54;;;;;;;27.87;18.07;;;;;;;7.30;100.00;99703.25;2040559;29;20031;-65
2021/05/13 00:36:54;;;;;;;31.70;18.90;;;;;;;7.27;100.00;99705.94;2040635;29;20053;-66
2021/05/13 00:37:54;;;;;;;21.40;14.70;;;;;;;7.26;100.00;99712.03;2040878;29;20508;-66
2021/05/13 00:38:55;;;;;;;17.33;12.17;;;;;;;7.25;100.00;99702.53;2039808;29;20039;-66
2021/05/13 00:39:56;;;;;;;15.23;10.55;;;;;;;7.21;100.00;99701.78;2040016;29;20028;-66
2021/05/13 00:40:56;;;;;;;16.87;10.20;;;;;;;7.23;100.00;99706.91;2040253;29;20543;-66
2021/05/13 00:41:56;;;;;;;15.37;10.00;;;;;;;7.20;100.00;99704.41;2040467;29;20067;-66
2021/05/13 00:42:56;;;;;;;14.30;9.53;;;;;;;7.24;100.00;99701.69;2040454;29;20036;-66
2021/05/13 00:43:57;;;;;;;16.60;9.77;;;;;;;7.29;100.00;99694.66;2040418;29;20032;-66
2021/05/13 00:44:57;;;;;;;15.43;9.47;;;;;;;7.24;100.00;99703.44;2040075;29;20028;-66
2021/05/13 00:45:58;;;;;;;14.23;9.67;;;;;;;7.21;100.00;99693.13;2040830;29;20032;-66
2021/05/13 00:46:58;;;;;;;11.97;9.43;;;;;;;7.18;100.00;99688.03;2047214;29;20090;-67
2021/05/13 00:49:05;;;;;;;15.33;11.40;;;;;;;7.24;100.00;99695.66;2039803;29;20035;-68
2021/05/13 00:50:06;;;;;;;13.98;10.02;;;;;;;7.16;100.00;99695.81;2037652;29;20038;-68
2021/05/13 00:51:07;;;;;;;13.82;9.65;;;;;;;7.13;100.00;99698.50;2040192;29;20551;-68
2021/05/13 00:52:08;;;;;;;;;;;;;;;7.10;100.00;99699.41;2040805;29;20066;-68
2021/05/13 00:53:10;;;;;;;16.75;10.40;;;;;;;7.15;100.00;99692.41;2054580;28;20458;-68
2021/05/13 00:54:11;;;;;;;15.05;9.98;;;;;;;7.17;100.00;99700.13;2055158;28;20157;-68
2021/05/13 00:55:14;;;;;;;14.55;10.80;;;;;;;7.15;100.00;99697.59;2039464;29;20024;-68
2021/05/13 00:56:14;;;;;;;12.93;10.52;;;;;;;7.18;100.00;99693.22;2031074;29;20035;-68
2021/05/13 00:57:15;;;;;;;13.67;9.83;;;;;;;7.10;100.00;99693.41;2039689;29;20527;-68
2021/05/13 00:58:16;;;;;;;12.85;9.63;;;;;;;7.03;100.00;99686.66;2039945;29;20031;-68
2021/05/13 00:59:18;;;;;;;15.57;10.33;;;;;;;7.04;100.00;99694.38;2039953;29;20020;-68
2021/05/13 01:02:47;;;;;;;13.93;10.13;;;;;;;6.90;100.00;99683.53;2038596;29;20477;-68
2021/05/13 01:03:48;;;;;;;13.70;10.13;;;;;;;6.84;100.00;99687.94;2040054;29;20024;-66
2021/05/13 01:04:48;;;;;;;19.23;9.73;;;;;;;6.79;100.00;99681.16;2039806;29;20106;-66
2021/05/13 01:05:49;;;;;;;12.77;9.70;;;;;;;6.75;100.00;99682.97;2040169;29;20465;-66
2021/05/13 01:06:49;;;;;;;11.40;9.27;;;;;;;6.72;100.00;99687.38;2040420;29;20023;-66
2021/05/13 01:07:50;;;;;;;13.57;9.23;;;;;;;6.69;100.00;99691.72;2040231;29;20499;-66
2021/05/13 01:08:50;;;;;;;15.37;9.67;;;;;;;6.65;100.00;99689.25;2040060;29;20223;-66
2021/05/13 01:09:50;;;;;;;12.97;10.10;;;;;;;6.61;100.00;99682.44;2039688;29;20156;-66
2021/05/13 01:10:51;;;;;;;13.93;9.60;;;;;;;6.56;100.00;99681.69;2040542;29;20508;-66
2021/05/13 01:11:56;;;;;;;13.43;9.67;;;;;;;6.54;100.00;99684.31;2039445;29;20070;-66
2021/05/13 01:13:01;;;;;;;13.05;9.77;;;;;;;6.48;100.00;99685.31;2039531;29;20453;-66
2021/05/13 01:14:12;;;;;;;11.75;9.48;;;;;;;6.47;100.00;99688.78;2035970;29;21901;-66
2021/05/13 01:15:26;;;;;;;13.30;9.95;;;;;;;6.45;100.00;99684.53;2040195;29;20035;-66
2021/05/13 01:16:50;;;;;;;11.20;9.38;;;;;;;6.42;100.00;99681.97;2037876;29;20051;-66
2021/05/13 01:18:04;;;;;;;11.95;9.65;;;;;;;6.39;100.00;99683.75;2040106;29;20485;-66
2021/05/13 01:19:07;;;;;;;14.30;9.75;;;;;;;6.36;100.00;99678.66;2038383;29;20026;-66
2021/05/13 01:20:08;;;;;;;13.85;10.30;;;;;;;6.42;100.00;99680.22;2039444;29;20027;-66
2021/05/13 01:21:13;;;;;;;13.73;9.73;;;;;;;6.41;100.00;99672.50;2039727;29;20023;-66
2021/05/13 01:22:15;;;;;;;14.65;10.15;;;;;;;6.38;100.00;99678.63;2039843;29;20031;-66
2021/05/13 01:23:16;;;;;;;12.75;10.02;;;;;;;6.37;100.00;99674.31;2039818;29;20024;-66
2021/05/13 01:24:16;;;;;;;18.50;11.00;;;;;;;6.39;100.00;99677.72;2040000;29;20047;-66
2021/05/13 01:25:16;;;;;;;16.07;10.00;;;;;;;6.37;100.00;99676.91;2040038;29;20066;-66
2021/05/13 01:26:18;;;;;;;24.13;12.23;;;;;;;6.40;100.00;99676.84;2040026;29;20031;-66
2021/05/13 01:27:19;;;;;;;15.05;11.25;;;;;;;6.39;100.00;99678.56;2040262;29;20020;-66
2021/05/13 01:28:29;;;;;;;16.20;12.33;;;;;;;6.46;100.00;99675.88;2046779;29;20046;-66
2021/05/13 01:29:29;;;;;;;16.90;12.55;;;;;;;6.51;100.00;99681.78;2045921;29;20031;-66
2021/05/13 01:30:30;;;;;;;19.33;12.50;;;;;;;6.56;100.00;99676.50;2040025;29;20106;-66
2021/05/13 01:31:30;;;;;;;18.73;13.00;;;;;;;6.59;100.00;99679.88;2039998;29;20030;-66
2021/05/13 01:32:31;;;;;;;19.25;14.30;;;;;;;6.69;100.00;99670.19;2039900;29;20059;-66
2021/05/13 01:33:31;;;;;;;18.80;14.03;;;;;;;6.79;100.00;99678.56;2040036;29;20031;-66
2021/05/13 01:34:31;;;;;;;18.00;14.20;;;;;;;6.80;100.00;99673.38;2038611;29;20024;-66
2021/05/13 01:35:32;;;;;;;18.07;13.17;;;;;;;6.74;100.00;99673.50;2039639;29;20469;-66
2021/05/13 01:36:34;;;;;;;23.67;14.10;;;;;;;6.82;100.00;99674.16;2040034;29;20023;-66
2021/05/13 01:37:34;;;;;;;22.02;14.27;;;;;;;6.81;100.00;99676.81;2040275;29;20428;-66
2021/05/13 01:38:35;;;;;;;17.90;13.43;;;;;;;6.75;100.00;99672.63;2039321;29;20047;-66
2021/05/13 01:39:35;;;;;;;17.17;13.80;;;;;;;6.72;100.00;99667.50;2039734;29;20425;-66
2021/05/13 01:40:37;;;;;;;20.35;13.35;;;;;;;6.74;100.00;99670.06;2040298;29;20676;-66
2021/05/13 01:41:39;;;;;;;18.90;13.02;;;;;;;6.76;100.00;99674.31;2039487;29;20058;-66
2021/05/13 01:42:40;;;;;;;22.05;14.30;;;;;;;6.69;100.00;99670.19;2040061;29;20039;-66
2021/05/13 01:43:40;;;;;;;23.33;13.87;;;;;;;6.64;100.00;99670.28;2039347;29;20027;-66
2021/05/13 01:44:41;;;;;;;15.70;12.87;;;;;;;6.62;100.00;99671.19;2039723;29;20127;-66
2021/05/13 01:45:42;;;;;;;18.73;13.23;;;;;;;6.62;100.00;99676.34;2038496;29;20054;-66
2021/05/13 01:46:42;;;;;;;19.50;13.30;;;;;;;6.59;100.00;99671.25;2039508;29;20059;-66
2021/05/13 01:47:42;;;;;;;22.40;13.70;;;;;;;6.61;100.00;99674.69;2039285;29;20404;-66
2021/05/13 01:48:44;;;;;;;19.93;14.93;;;;;;;6.66;100.00;99672.81;2040557;29;20023;-66
2021/05/13 01:49:44;;;;;;;20.65;14.52;;;;;;;6.67;100.00;99675.38;2040196;29;20516;-66
2021/05/13 01:50:49;;;;;;;23.33;15.10;;;;;;;6.76;100.00;99673.47;2039856;29;20016;-66
2021/05/13 01:51:50;;;;;;;24.02;14.68;;;;;;;6.84;100.00;99669.81;2039600;29;20027;-66
2021/05/13 01:52:50;;;;;;;21.35;15.02;;;;;;;6.91;100.00;99672.25;2040177;29;20058;-65
2021/05/13 01:53:50;;;;;;;20.57;14.13;;;;;;;6.85;100.00;99679.28;2039282;29;20095;-66
2021/05/13 01:54:51;;;;;;;23.17;13.57;;;;;;;6.90;100.00;99680.94;2040200;29;20487;-66
2021/05/13 01:55:51;;;;;;;19.00;13.73;;;;;;;6.84;100.00;99675.00;2039785;29;20291;-66
2021/05/13 01:56:51;;;;;;;17.83;12.83;;;;;;;6.80;100.00;99673.38;2039953;29;20074;-66
2021/05/13 01:57:53;;;;;;;19.07;13.33;;;;;;;6.79;100.00;99674.25;2040024;29;20024;-66
2021/05/13 01:58:53;;;;;;;17.52;13.15;;;;;;;6.83;100.00;99678.47;2040177;29;20047;-66
2021/05/13 01:59:53;;;;;;;20.37;13.87;;;;;;;6.83;100.00;99675.88;2039684;29;20469;-66
2021/05/13 02:00:54;;;;;;;21.33;13.70;;;;;;;7.00;100.00;99672.88;2040025;29;20020;-66
2021/05/13 02:01:54;;;;;;;16.90;12.67;;;;;;;6.99;100.00;99678.13;2039377;29;20034;-66
2021/05/13 02:02:54;;;;;;;18.47;13.33;;;;;;;6.98;100.00;99677.25;2040059;29;20469;-66
2021/05/13 02:03:55;;;;;;;19.63;13.00;;;;;;;7.05;100.00;99679.72;2039720;29;20054;-66
2021/05/13 02:04:55;;;;;;;15.70;12.55;;;;;;;7.09;100.00;99678.72;2040113;29;20527;-66
2021/05/13 02:05:56;;;;;;;18.47;12.93;;;;;;;7.11;100.00;99676.97;2039492;29;20574;-66
2021/05/13 02:06:56;;;;;;;22.93;12.63;;;;;;;7.19;100.00;99674.19;2039565;29;20082;-66
2021/05/13 02:07:58;;;;;;;20.67;12.70;;;;;;;7.20;100.00;99681.09;2039979;29;20497;-66
2021/05/13 02:08:58;;;;;;;16.35;12.13;;;;;;;7.26;100.00;99683.50;2039674;29;20024;-66
2021/05/13 02:09:58;;;;;;;18.43;12.80;;;;;;;7.23;100.00;99678.41;2040021;29;20019;-65
2021/05/13 02:10:59;;;;;;;19.83;13.20;;;;;;;7.21;100.00;99680.16;2040234;29;20031;-66
2021/05/13 02:11:59;;;;;;;21.17;11.75;;;;;;;7.21;100.00;99674.97;2039816;29;20034;-66
2021/05/13 02:12:59;;;;;;;16.80;12.10;;;;;;;7.24;100.00;99682.69;2039341;29;20036;-66
2021/05/13 02:14:00;;;;;;;18.53;12.83;;;;;;;7.25;100.00;99680.06;2031115;29;20044;-66
2021/05/13 02:15:00;;;;;;;18.43;12.13;;;;;;;7.24;100.00;99680.97;2038810;29;20535;-66
2021/05/13 02:16:00;;;;;;;16.73;11.87;;;;;;;7.25;100.00;99685.22;2039494;29;20119;-66
2021/05/13 02:17:00;;;;;;;18.80;12.00;;;;;;;7.22;100.00;99682.75;2038808;29;20036;-65
2021/05/13 02:18:01;;;;;;;16.40;11.77;;;;;;;7.23;100.00;99686.16;2039379;29;20043;-66
2021/05/13 02:19:01;;;;;;;16.00;11.70;;;;;;;7.24;100.00;99677.50;2039850;29;20036;-66
2021/05/13 02:20:04;;;;;;;14.03;12.17;;;;;;;7.26;100.00;99676.56;2040144;29;20059;-66
2021/05/13 02:21:05;;;;;;;17.77;11.52;;;;;;;7.32;100.00;99683.34;2039775;29;20032;-66
2021/05/13 02:22:05;;;;;;;16.50;11.90;;;;;;;7.38;100.00;99677.16;2039898;29;20055;-66
2021/05/13 02:23:05;;;;;;;16.57;12.60;;;;;;;7.37;100.00;99676.31;2039029;29;20115;-66
2021/05/13 02:24:06;;;;;;;16.67;11.80;;;;;;;7.45;100.00;99676.09;2039385;29;20071;-66
2021/05/13 02:25:08;;;;;;;17.23;11.43;;;;;;;7.47;100.00;99680.38;2039272;29;20024;-66
2021/05/13 02:26:08;;;;;;;15.70;11.75;;;;;;;7.49;100.00;99677.75;2039373;29;20034;-66
2021/05/13 02:27:08;;;;;;;14.70;11.77;;;;;;;7.47;100.00;99671.72;2038803;29;20133;-66
2021/05/13 02:28:09;;;;;;;13.37;11.27;;;;;;;7.51;100.00;99675.97;2039164;29;20032;-65
2021/05/13 02:29:09;;;;;;;15.20;11.13;;;;;;;7.46;100.00;99675.22;2038800;29;20531;-66
2021/05/13 02:30:12;;;;;;;15.83;10.97;;;;;;;7.48;100.00;99676.03;2036979;29;20035;-65
2021/05/13 02:31:14;;;;;;;13.98;11.43;;;;;;;7.43;100.00;99676.16;2038316;29;20122;-66
2021/05/13 02:32:14;;;;;;;13.68;11.25;;;;;;;7.40;100.00;99671.03;2039262;29;20027;-65
2021/05/13 02:33:14;;;;;;;14.10;11.70;;;;;;;7.41;100.00;99677.94;2039099;29;20505;-66
2021/05/13 02:34:14;;;;;;;13.70;11.40;;;;;;;7.44;100.00;99671.84;2039171;29;20031;-66
2021/05/13 02:35:15;;;;;;;14.70;11.33;;;;;;;7.43;100.00;99670.97;2039290;29;20035;-66
2021/05/13 02:36:15;;;;;;;15.20;11.02;;;;;;;7.44;100.00;99675.25;2039919;29;20425;-66
2021/05/13 02:37:16;;;;;;;11.87;10.57;;;;;;;7.45;100.00;99666.59;2039800;29;20043;-66
2021/05/13 02:38:16;;;;;;;15.70;11.00;;;;;;;7.46;100.00;99676.09;2038992;29;20031;-65
2021/05/13 02:39:16;;;;;;;16.27;11.57;;;;;;;7.47;100.00;99670.00;2039042;29;20020;-65
2021/05/13 02:40:17;;;;;;;13.17;11.13;;;;;;;7.48;100.00;99669.13;2040049;29;20103;-66
2021/05/13 02:41:17;;;;;;;12.75;10.82;;;;;;;7.44;100.00;99667.47;2039082;29;20508;-65
2021/05/13 02:42:18;;;;;;;15.20;10.90;;;;;;;7.47;100.00;99664.81;2038423;29;20032;-65
2021/05/13 02:43:18;;;;;;;15.48;10.68;;;;;;;7.47;100.00;99671.72;2039347;29;20402;-66
2021/05/13 02:44:19;;;;;;;15.70;11.53;;;;;;;7.47;100.00;99666.53;2039920;29;20159;-66
2021/05/13 02:45:19;;;;;;;13.93;10.77;;;;;;;7.52;100.00;99669.03;2039876;29;20036;-66
2021/05/13 02:46:19;;;;;;;13.83;10.77;;;;;;;7.52;100.00;99666.44;2039306;29;20051;-66
2021/05/13 02:47:19;;;;;;;17.20;10.90;;;;;;;7.48;100.00;99670.84;2039830;29;20038;-65
2021/05/13 02:48:20;;;;;;;13.50;10.30;;;;;;;7.44;100.00;99667.47;2038607;29;20040;-66
2021/05/13 02:49:20;;;;;;;12.83;10.70;;;;;;;7.39;100.00;99669.34;2037972;29;20493;-66
2021/05/13 02:50:21;;;;;;;10.60;9.33;;;;;;;7.39;100.00;99669.34;2037150;29;20106;-66
2021/05/13 02:51:21;;;;;;;12.53;10.73;;;;;;;7.39;100.00;99668.50;2039864;29;20424;-66
2021/05/13 02:52:22;;;;;;;13.63;10.13;;;;;;;7.35;100.00;99665.13;2037351;29;20122;-66
2021/05/13 02:53:22;;;;;;;11.30;10.02;;;;;;;7.36;100.00;99661.66;2039489;29;20026;-66
2021/05/13 02:54:22;;;;;;;14.53;10.57;;;;;;;7.35;100.00;99662.53;2037879;29;20039;-66
2021/05/13 02:55:23;;;;;;;13.57;9.60;;;;;;;7.31;100.00;99653.13;2040311;29;20023;-66
2021/05/13 02:56:24;;;;;;;11.70;9.48;;;;;;;7.29;100.00;99657.53;2040907;29;20062;-66
2021/05/13 02:57:24;;;;;;;14.73;10.03;;;;;;;7.28;100.00;99655.81;2041321;29;20050;-66
2021/05/13 02:58:24;;;;;;;13.70;10.27;;;;;;;7.25;100.00;99661.06;2041042;29;20101;-66
2021/05/13 02:59:45;;;;;;;14.57;10.17;;;;;;;7.21;100.00;99660.31;2041395;29;20027;-66
2021/05/13 03:01:54;;;;;;;12.73;10.82;;;;;;;7.24;100.00;99643.81;2040908;29;20030;-66
2021/05/13 03:02:55;;;;;;;14.70;11.77;;;;;;;7.23;100.00;99642.09;2041086;29;20027;-65
2021/05/13 03:03:58;;;;;;;15.80;11.63;;;;;;;7.19;100.00;99641.34;2041093;29;20034;-66
2021/05/13 03:04:58;;;;;;;16.80;11.43;;;;;;;7.18;100.00;99652.59;2041022;29;20038;-65
2021/05/13 03:05:58;;;;;;;14.37;12.23;;;;;;;7.18;100.00;99639.63;2041309;29;20603;-66
2021/05/13 03:06:59;;;;;;;17.73;12.17;;;;;;;7.16;100.00;99646.59;2040226;29;20056;-66
2021/05/13 03:08:02;;;;;;;16.00;12.10;;;;;;;7.20;100.00;99652.56;2040368;29;20163;-66
2021/05/13 03:09:03;;;;;;;16.15;11.85;;;;;;;7.13;100.00;99644.94;2041091;29;20555;-65
2021/05/13 03:10:12;;;;;;;17.13;11.88;;;;;;;7.06;100.00;99648.56;2040768;29;20070;-65
2021/05/13 03:11:13;;;;;;;18.85;12.20;;;;;;;7.02;100.00;99644.34;2040602;29;20038;-66
2021/05/13 03:12:13;;;;;;;15.27;12.27;;;;;;;7.01;100.00;99640.03;2040569;29;20031;-66
2021/05/13 03:13:21;;;;;;;14.60;11.97;;;;;;;6.95;100.00;99637.63;2055505;28;20193;-65
2021/05/13 03:14:21;;;;;;;13.55;11.55;;;;;;;6.91;100.00;99646.34;2047338;29;20027;-65
2021/05/13 03:15:22;;;;;;;15.00;11.85;;;;;;;6.89;100.00;99637.78;2040478;29;20032;-66
2021/05/13 03:16:23;;;;;;;16.15;12.43;;;;;;;6.87;100.00;99644.72;2047672;29;20070;-65
2021/05/13 03:17:24;;;;;;;16.95;12.43;;;;;;;6.83;100.00;99639.59;2041446;29;20051;-66
2021/05/13 03:18:27;;;;;;;14.27;11.98;;;;;;;6.83;100.00;99644.78;2040730;29;20027;-66
2021/05/13 03:19:34;;;;;;;15.75;12.30;;;;;;;6.83;100.00;99638.78;2040111;29;20020;-66
2021/05/13 03:20:38;;;;;;;19.85;12.13;;;;;;;6.79;100.00;99638.00;2033318;29;20043;-66
2021/05/13 03:21:41;;;;;;;18.30;12.27;;;;;;;6.76;100.00;99642.41;2044559;29;20031;-66
2021/05/13 03:22:42;;;;;;;16.85;11.93;;;;;;;6.71;100.00;99642.47;2048437;28;20038;-66
2021/05/13 03:23:49;;;;;;;18.73;11.80;;;;;;;6.73;100.00;99643.31;2040778;29;20070;-66
2021/05/13 03:24:52;;;;;;;17.70;12.52;;;;;;;6.70;100.00;99638.22;2040440;29;20031;-66
2021/05/13 03:25:59;;;;;;;20.83;12.85;;;;;;;6.67;100.00;99641.69;2040450;29;20023;-66
2021/05/13 03:27:25;;;;;;;16.33;12.48;;;;;;;6.68;100.00;99639.97;2040327;29;20382;-66
2021/05/13 03:28:25;;;;;;;16.83;12.48;;;;;;;6.76;100.00;99635.47;2041122;29;20047;-66
2021/05/13 03:29:27;;;;;;;14.67;12.87;;;;;;;6.82;100.00;99635.31;2040471;29;20036;-66
2021/05/13 03:30:28;;;;;;;17.38;12.45;;;;;;;6.78;100.00;99630.25;2041194;29;20464;-66
2021/05/13 03:31:28;;;;;;;16.77;12.60;;;;;;;6.67;100.00;99636.53;2040394;29;20031;-66
2021/05/13 03:32:28;;;;;;;16.00;11.70;;;;;;;6.59;100.00;99629.84;2040851;29;20555;-66
2021/05/13 03:33:29;;;;;;;17.07;12.53;;;;;;;6.56;100.00;99629.91;2039952;29;20035;-66
2021/05/13 03:34:30;;;;;;;16.70;12.63;;;;;;;6.68;100.00;99630.47;2040769;29;20031;-66
2021/05/13 03:35:30;;;;;;;18.70;12.48;;;;;;;6.62;100.00;99632.34;2041090;29;20036;-66
2021/05/13 03:36:31;;;;;;;19.07;12.83;;;;;;;6.63;100.00;99636.63;2041479;29;20491;-66
2021/05/13 03:37:33;;;;;;;20.02;12.57;;;;;;;6.56;100.00;99629.91;2040863;29;20282;-66
2021/05/13 03:38:33;;;;;;;15.98;12.27;;;;;;;6.53;100.00;99630.81;2039209;29;20024;-66
2021/05/13 03:39:33;;;;;;;20.20;12.23;;;;;;;6.55;100.00;99634.25;2040710;29;20034;-66
2021/05/13 03:40:34;;;;;;;19.23;11.73;;;;;;;6.47;100.00;99633.53;2040420;29;20027;-66
2021/05/13 03:41:35;;;;;;;13.85;11.65;;;;;;;6.42;100.00;99632.81;2039902;29;20039;-66
2021/05/13 03:42:35;;;;;;;16.40;11.10;;;;;;;6.36;100.00;99626.88;2040535;29;20472;-66
2021/05/13 03:43:35;;;;;;;18.73;12.70;;;;;;;6.41;100.00;99629.38;2041167;29;20032;-66
2021/05/13 03:44:36;;;;;;;18.33;12.70;;;;;;;6.38;100.00;99626.84;2041535;28;20036;-66
2021/05/13 03:45:36;;;;;;;14.03;11.30;;;;;;;6.32;100.00;99625.25;2039666;29;20692;-66
2021/05/13 03:46:36;;;;;;;17.87;12.53;;;;;;;6.34;100.00;99625.19;2047784;29;20027;-66
2021/05/13 03:47:36;;;;;;;14.90;12.17;;;;;;;6.30;100.00;99623.59;2047768;29;20041;-66
2021/05/13 03:48:37;;;;;;;16.07;11.67;;;;;;;6.29;100.00;99621.88;2039793;29;20035;-66
2021/05/13 03:49:37;;;;;;;16.30;13.20;;;;;;;6.45;100.00;99623.22;2040308;29;20031;-67
2021/05/13 03:50:38;;;;;;;16.87;13.33;;;;;;;6.43;100.00;99619.81;2039581;29;20657;-64
2021/05/13 03:51:38;;;;;;;17.30;13.13;;;;;;;6.41;100.00;99621.59;2037763;29;20038;-66
2021/05/13 03:52:39;;;;;;;18.23;13.27;;;;;;;6.41;100.00;99623.34;2039788;29;20465;-66
2021/05/13 03:53:39;;;;;;;17.73;14.27;;;;;;;6.43;100.00;99624.16;2040565;29;20062;-66
2021/05/13 03:54:39;;;;;;;17.53;13.80;;;;;;;6.46;100.00;99621.50;2039496;29;20079;-66
2021/05/13 03:55:40;;;;;;;20.53;13.87;;;;;;;6.42;100.00;99617.28;2039942;29;20075;-66
2021/05/13 03:56:40;;;;;;;18.93;14.33;;;;;;;6.48;100.00;99622.28;2040628;29;20085;-66
2021/05/13 03:57:41;;;;;;;16.73;12.80;;;;;;;6.45;100.00;99618.06;2040792;29;20059;-66
2021/05/13 03:58:48;;;;;;;19.42;13.07;;;;;;;6.45;100.00;99620.63;2040768;29;20050;-66
2021/05/13 03:59:50;;;;;;;18.48;13.38;;;;;;;6.44;100.00;99629.28;2039883;29;20453;-66
2021/05/13 04:01:08;;;;;;;21.90;14.07;;;;;;;6.46;100.00;99624.94;2038307;29;20040;-66
2021/05/13 04:03:09;;;;;;;16.33;13.20;;;;;;;6.52;100.00;99626.53;2040322;29;20111;-66
2021/05/13 04:04:10;;;;;;;17.73;13.57;;;;;;;6.53;100.00;99621.31;2040612;29;20480;-66
2021/05/13 04:05:11;;;;;;;16.70;13.13;;;;;;;6.60;100.00;99628.94;2039317;29;20090;-66
2021/05/13 04:06:12;;;;;;;;;;;;;;;6.57;100.00;99627.25;2039238;29;20116;-66
2021/05/13 04:07:12;;;;;;;20.45;13.57;;;;;;;6.59;100.00;99627.25;2041579;29;19911;-64
2021/05/13 04:08:14;;;;;;;24.00;13.00;;;;;;;6.59;100.00;99633.25;2048510;28;20033;-65
2021/05/13 04:09:15;;;;;;;20.52;13.40;;;;;;;6.58;100.00;99633.31;2049694;28;20032;-65
2021/05/13 04:10:15;;;;;;;16.60;13.18;;;;;;;6.54;100.00;99628.19;2046245;29;20058;-66
2021/05/13 04:11:16;;;;;;;21.17;13.30;;;;;;;6.60;100.00;99626.38;2039984;29;20111;-65
2021/05/13 04:12:17;;;;;;;16.80;13.05;;;;;;;6.57;100.00;99629.00;2038807;29;20019;-65
2021/05/13 04:13:18;;;;;;;14.97;12.97;;;;;;;6.58;100.00;99628.13;2039847;29;20063;-64
2021/05/13 04:14:20;;;;;;;17.65;13.25;;;;;;;6.59;100.00;99632.44;2040301;29;20024;-65
2021/05/13 04:15:21;;;;;;;17.58;12.60;;;;;;;6.64;100.00;99627.97;2040302;29;20020;-66
2021/05/13 04:16:28;;;;;;;14.97;12.60;;;;;;;6.65;100.00;99625.38;2040374;29;20549;-64
2021/05/13 04:17:28;;;;;;;19.33;12.27;;;;;;;6.58;100.00;99625.53;2039792;29;20035;-66
2021/05/13 04:18:28;;;;;;;18.37;12.87;;;;;;;6.59;100.00;99625.50;2039831;29;20075;-66
2021/05/13 04:19:28;;;;;;;14.13;11.63;;;;;;;6.59;100.00;99624.66;2040112;29;20103;-66
2021/05/13 04:20:29;;;;;;;13.77;11.50;;;;;;;6.58;100.00;99625.53;2040562;29;20033;-66
2021/05/13 04:21:29;;;;;;;16.13;12.17;;;;;;;6.65;100.00;99624.50;2039429;29;20031;-67
2021/05/13 04:22:30;;;;;;;14.40;11.30;;;;;;;6.68;100.00;99619.25;2040233;29;20029;-68
2021/05/13 04:23:30;;;;;;;14.00;11.77;;;;;;;6.75;100.00;99626.00;2039835;29;20031;-67
2021/05/13 04:24:30;;;;;;;14.17;10.80;;;;;;;6.74;100.00;99628.63;2040319;29;20055;-67
2021/05/13 04:25:31;;;;;;;15.37;10.97;;;;;;;6.77;100.00;99620.75;2040318;29;20023;-67
2021/05/13 04:26:31;;;;;;;15.10;10.57;;;;;;;6.81;100.00;99620.66;2040237;29;20058;-64
2021/05/13 04:27:31;;;;;;;14.07;10.67;;;;;;;6.81;100.00;99623.25;2039791;29;20106;-66
2021/05/13 04:28:31;;;;;;;14.70;11.13;;;;;;;6.87;100.00;99619.66;2040197;29;20034;-65
2021/05/13 04:29:32;;;;;;;12.77;10.10;;;;;;;6.89;100.00;99622.22;2039989;29;20036;-66
2021/05/13 04:30:32;;;;;;;15.60;10.77;;;;;;;6.93;100.00;99618.66;2040085;29;20060;-65
2021/05/13 04:31:33;;;;;;;13.40;10.20;;;;;;;7.00;100.00;99623.66;2038203;29;20035;-64
2021/05/13 04:32:33;;;;;;;13.05;10.43;;;;;;;7.04;100.00;99621.00;2038288;29;20034;-66
2021/05/13 04:33:34;;;;;;;14.60;10.47;;;;;;;7.06;100.00;99614.88;2036627;29;20051;-65
2021/05/13 04:34:34;;;;;;;18.10;10.10;;;;;;;7.11;100.00;99617.34;2037228;29;20677;-65
2021/05/13 04:35:35;;;;;;;14.97;10.20;;;;;;;7.20;100.00;99611.09;2032759;29;20374;-65
2021/05/13 04:36:35;;;;;;;15.68;9.70;;;;;;;7.16;100.00;99612.91;2033888;29;20034;-66
2021/05/13 04:37:35;;;;;;;11.77;10.17;;;;;;;7.21;100.00;99611.06;2032646;29;20453;-66
2021/05/13 04:38:36;;;;;;;11.90;9.63;;;;;;;7.32;100.00;99606.44;2033620;29;20038;-65
2021/05/13 04:39:36;;;;;;;12.60;10.20;;;;;;;7.36;100.00;99608.94;2036265;29;20023;-65
2021/05/13 04:40:36;;;;;;;13.47;9.10;;;;;;;7.32;100.00;99608.16;2039330;29;20093;-65
2021/05/13 04:41:37;;;;;;;15.77;9.47;;;;;;;7.36;100.00;99606.34;2039826;29;20035;-65
2021/05/13 04:42:37;;;;;;;11.10;8.70;;;;;;;7.42;100.00;99609.63;2036278;29;20136;-66
2021/05/13 04:43:37;;;;;;;10.60;8.50;;;;;;;7.52;100.00;99602.47;2034568;29;20928;-66
2021/05/13 04:44:38;;;;;;;11.13;8.20;;;;;;;7.57;100.00;99597.16;2034721;29;20532;-66
2021/05/13 04:45:38;;;;;;;10.30;8.53;;;;;;;7.62;100.00;99595.25;2033789;29;20051;-66
2021/05/13 04:46:38;;;;;;;10.63;8.27;;;;;;;7.61;100.00;99602.22;2032825;29;20036;-66
2021/05/13 04:49:53;;;;;;;10.27;8.07;;;;;;;7.88;98.08;99598.88;2034900;29;20270;-66
2021/05/13 04:50:54;;;;;;;10.18;7.68;;;;;;;7.98;97.13;99600.31;2049219;28;20037;-66